sensor_id;sensor_type;location;lat;lon;timestamp;P1;durP1;ratioP1;P2;durP2;ratioP2
5333;SDS011;2689;50.954;7.116;2023-02-15T00:01:31;30.97;;;20.17;;
5333;SDS011;2689;50.954;7.116;2023-02-15T00:03:59;31.23;;;18.43;;
5333;SDS011;2689;50.954;7.116;2023-02-15T00:06:26;31.90;;;19.53;;
5333;SDS011;2689;50.954;7.116;2023-02-15T00:08:53;30.43;;;18.50;;
5333;SDS011;2689;50.954;7.116;2023-02-15T00:11:19;34.30;;;21.47;;
5333;SDS011;2689;50.954;7.116;2023-02-15T00:14:04;27.90;;;17.87;;
5333;SDS011;2689;50.954;7.116;2023-02-15T00:16:33;33.17;;;20.13;;
5333;SDS011;2689;50.954;7.116;2023-02-15T00:19:01;28.30;;;17.27;;
5333;SDS011;2689;50.954;7.116;2023-02-15T00:21:28;32.67;;;19.80;;
5333;SDS011;2689;50.954;7.116;2023-02-15T00:23:56;31.00;;;18.60;;
5333;SDS011;2689;50.954;7.116;2023-02-15T00:26:23;30.20;;;19.33;;
5333;SDS011;2689;50.954;7.116;2023-02-15T00:28:51;32.90;;;20.10;;
5333;SDS011;2689;50.954;7.116;2023-02-15T00:31:18;30.17;;;18.60;;
5333;SDS011;2689;50.954;7.116;2023-02-15T00:33:47;30.07;;;18.97;;
5333;SDS011;2689;50.954;7.116;2023-02-15T00:36:14;29.30;;;19.23;;
5333;SDS011;2689;50.954;7.116;2023-02-15T00:38:41;29.17;;;17.53;;
5333;SDS011;2689;50.954;7.116;2023-02-15T00:41:08;33.50;;;20.77;;
5333;SDS011;2689;50.954;7.116;2023-02-15T00:43:35;31.97;;;19.30;;
5333;SDS011;2689;50.954;7.116;2023-02-15T00:46:03;27.97;;;18.90;;
5333;SDS011;2689;50.954;7.116;2023-02-15T00:48:31;27.67;;;17.87;;
5333;SDS011;2689;50.954;7.116;2023-02-15T00:50:59;32.87;;;19.20;;
5333;SDS011;2689;50.954;7.116;2023-02-15T00:53:27;30.00;;;19.37;;
5333;SDS011;2689;50.954;7.116;2023-02-15T00:55:55;29.77;;;18.67;;
5333;SDS011;2689;50.954;7.116;2023-02-15T00:58:22;29.10;;;18.50;;
5333;SDS011;2689;50.954;7.116;2023-02-15T01:00:49;29.53;;;19.20;;
5333;SDS011;2689;50.954;7.116;2023-02-15T01:03:17;29.73;;;19.37;;
5333;SDS011;2689;50.954;7.116;2023-02-15T01:05:46;30.27;;;17.70;;
5333;SDS011;2689;50.954;7.116;2023-02-15T01:08:15;32.57;;;17.60;;
5333;SDS011;2689;50.954;7.116;2023-02-15T01:10:42;31.67;;;19.23;;
5333;SDS011;2689;50.954;7.116;2023-02-15T01:13:12;31.40;;;19.93;;
5333;SDS011;2689;50.954;7.116;2023-02-15T01:15:39;32.53;;;20.17;;
5333;SDS011;2689;50.954;7.116;2023-02-15T01:18:06;30.07;;;18.40;;
5333;SDS011;2689;50.954;7.116;2023-02-15T01:20:34;32.13;;;18.07;;
5333;SDS011;2689;50.954;7.116;2023-02-15T01:23:04;34.10;;;18.33;;
5333;SDS011;2689;50.954;7.116;2023-02-15T01:25:33;29.27;;;17.67;;
5333;SDS011;2689;50.954;7.116;2023-02-15T01:28:01;26.20;;;16.27;;
5333;SDS011;2689;50.954;7.116;2023-02-15T01:30:28;28.23;;;18.67;;
5333;SDS011;2689;50.954;7.116;2023-02-15T01:32:55;28.40;;;18.17;;
5333;SDS011;2689;50.954;7.116;2023-02-15T01:35:22;28.00;;;18.03;;
5333;SDS011;2689;50.954;7.116;2023-02-15T01:37:49;29.00;;;16.73;;
5333;SDS011;2689;50.954;7.116;2023-02-15T01:40:17;30.83;;;19.40;;
5333;SDS011;2689;50.954;7.116;2023-02-15T01:42:49;31.27;;;18.00;;
5333;SDS011;2689;50.954;7.116;2023-02-15T01:45:18;27.73;;;18.50;;
5333;SDS011;2689;50.954;7.116;2023-02-15T01:47:48;30.70;;;17.70;;
5333;SDS011;2689;50.954;7.116;2023-02-15T01:50:20;28.33;;;17.33;;
5333;SDS011;2689;50.954;7.116;2023-02-15T01:52:53;36.23;;;19.00;;
5333;SDS011;2689;50.954;7.116;2023-02-15T01:55:23;31.10;;;19.03;;
5333;SDS011;2689;50.954;7.116;2023-02-15T01:57:53;32.37;;;20.43;;
5333;SDS011;2689;50.954;7.116;2023-02-15T02:00:20;31.53;;;20.30;;
5333;SDS011;2689;50.954;7.116;2023-02-15T02:02:48;31.03;;;17.97;;
5333;SDS011;2689;50.954;7.116;2023-02-15T02:05:18;31.17;;;18.60;;
5333;SDS011;2689;50.954;7.116;2023-02-15T02:07:45;34.30;;;19.57;;
5333;SDS011;2689;50.954;7.116;2023-02-15T02:10:15;27.80;;;18.20;;
5333;SDS011;2689;50.954;7.116;2023-02-15T02:12:43;31.17;;;18.90;;
5333;SDS011;2689;50.954;7.116;2023-02-15T02:15:14;32.10;;;19.40;;
5333;SDS011;2689;50.954;7.116;2023-02-15T02:17:43;27.50;;;18.10;;
5333;SDS011;2689;50.954;7.116;2023-02-15T02:23:23;29.40;;;18.37;;
5333;SDS011;2689;50.954;7.116;2023-02-15T02:26:10;29.53;;;19.00;;
5333;SDS011;2689;50.954;7.116;2023-02-15T02:29:23;31.07;;;18.67;;
5333;SDS011;2689;50.954;7.116;2023-02-15T02:35:21;29.87;;;18.07;;
5333;SDS011;2689;50.954;7.116;2023-02-15T02:37:55;27.33;;;16.63;;
5333;SDS011;2689;50.954;7.116;2023-02-15T02:40:33;29.63;;;18.40;;
5333;SDS011;2689;50.954;7.116;2023-02-15T02:43:09;29.67;;;18.37;;
5333;SDS011;2689;50.954;7.116;2023-02-15T02:45:40;28.77;;;17.67;;
5333;SDS011;2689;50.954;7.116;2023-02-15T02:48:11;29.77;;;18.53;;
5333;SDS011;2689;50.954;7.116;2023-02-15T02:50:42;28.50;;;17.90;;
5333;SDS011;2689;50.954;7.116;2023-02-15T02:53:09;31.73;;;18.37;;
5333;SDS011;2689;50.954;7.116;2023-02-15T02:55:38;32.73;;;18.57;;
5333;SDS011;2689;50.954;7.116;2023-02-15T02:58:08;27.50;;;18.40;;
5333;SDS011;2689;50.954;7.116;2023-02-15T03:00:40;29.20;;;19.20;;
5333;SDS011;2689;50.954;7.116;2023-02-15T03:03:12;26.37;;;17.30;;
5333;SDS011;2689;50.954;7.116;2023-02-15T03:05:46;29.17;;;18.37;;
5333;SDS011;2689;50.954;7.116;2023-02-15T03:08:16;32.67;;;18.33;;
5333;SDS011;2689;50.954;7.116;2023-02-15T03:10:47;31.97;;;18.77;;
5333;SDS011;2689;50.954;7.116;2023-02-15T03:13:16;28.60;;;18.37;;
5333;SDS011;2689;50.954;7.116;2023-02-15T03:15:43;28.43;;;17.70;;
5333;SDS011;2689;50.954;7.116;2023-02-15T03:18:30;33.13;;;17.90;;
5333;SDS011;2689;50.954;7.116;2023-02-15T03:21:03;28.80;;;17.43;;
5333;SDS011;2689;50.954;7.116;2023-02-15T03:23:32;27.53;;;17.60;;
5333;SDS011;2689;50.954;7.116;2023-02-15T03:26:00;26.73;;;17.23;;
5333;SDS011;2689;50.954;7.116;2023-02-15T03:28:31;27.17;;;17.60;;
5333;SDS011;2689;50.954;7.116;2023-02-15T03:31:02;27.23;;;17.10;;
5333;SDS011;2689;50.954;7.116;2023-02-15T03:33:32;30.30;;;18.13;;
5333;SDS011;2689;50.954;7.116;2023-02-15T03:36:04;25.10;;;15.80;;
5333;SDS011;2689;50.954;7.116;2023-02-15T03:38:40;27.97;;;16.47;;
5333;SDS011;2689;50.954;7.116;2023-02-15T03:41:13;28.43;;;18.27;;
5333;SDS011;2689;50.954;7.116;2023-02-15T03:43:44;26.73;;;14.87;;
5333;SDS011;2689;50.954;7.116;2023-02-15T03:46:21;26.80;;;17.40;;
5333;SDS011;2689;50.954;7.116;2023-02-15T03:49:03;40.07;;;18.17;;
5333;SDS011;2689;50.954;7.116;2023-02-15T03:51:35;27.80;;;16.20;;
5333;SDS011;2689;50.954;7.116;2023-02-15T03:54:04;29.07;;;17.93;;
5333;SDS011;2689;50.954;7.116;2023-02-15T03:56:34;29.17;;;17.83;;
5333;SDS011;2689;50.954;7.116;2023-02-15T03:59:02;31.77;;;17.70;;
5333;SDS011;2689;50.954;7.116;2023-02-15T04:01:49;26.73;;;16.77;;
5333;SDS011;2689;50.954;7.116;2023-02-15T04:04:24;29.97;;;18.63;;
5333;SDS011;2689;50.954;7.116;2023-02-15T04:06:55;27.97;;;16.90;;
5333;SDS011;2689;50.954;7.116;2023-02-15T04:09:22;30.20;;;18.60;;
5333;SDS011;2689;50.954;7.116;2023-02-15T04:12:07;29.60;;;18.13;;
5333;SDS011;2689;50.954;7.116;2023-02-15T04:14:34;32.33;;;19.13;;
5333;SDS011;2689;50.954;7.116;2023-02-15T04:17:18;27.07;;;16.90;;
5333;SDS011;2689;50.954;7.116;2023-02-15T04:19:45;27.77;;;16.70;;
5333;SDS011;2689;50.954;7.116;2023-02-15T04:22:31;26.00;;;16.37;;
5333;SDS011;2689;50.954;7.116;2023-02-15T04:25:15;28.90;;;16.80;;
5333;SDS011;2689;50.954;7.116;2023-02-15T04:27:43;30.97;;;18.03;;
5333;SDS011;2689;50.954;7.116;2023-02-15T04:30:12;25.30;;;16.90;;
5333;SDS011;2689;50.954;7.116;2023-02-15T04:32:39;26.40;;;15.80;;
5333;SDS011;2689;50.954;7.116;2023-02-15T04:35:07;30.17;;;17.73;;
5333;SDS011;2689;50.954;7.116;2023-02-15T04:37:36;28.93;;;16.20;;
5333;SDS011;2689;50.954;7.116;2023-02-15T04:40:04;25.30;;;16.30;;
5333;SDS011;2689;50.954;7.116;2023-02-15T04:42:34;27.10;;;16.53;;
5333;SDS011;2689;50.954;7.116;2023-02-15T04:45:00;29.60;;;17.40;;
5333;SDS011;2689;50.954;7.116;2023-02-15T04:47:27;26.93;;;17.43;;
5333;SDS011;2689;50.954;7.116;2023-02-15T04:49:54;29.90;;;17.13;;
5333;SDS011;2689;50.954;7.116;2023-02-15T04:52:21;26.40;;;16.40;;
5333;SDS011;2689;50.954;7.116;2023-02-15T04:54:49;26.67;;;16.77;;
5333;SDS011;2689;50.954;7.116;2023-02-15T04:57:16;30.80;;;16.80;;
5333;SDS011;2689;50.954;7.116;2023-02-15T04:59:43;24.13;;;16.00;;
5333;SDS011;2689;50.954;7.116;2023-02-15T05:02:10;28.70;;;17.90;;
5333;SDS011;2689;50.954;7.116;2023-02-15T05:04:36;30.27;;;16.80;;
5333;SDS011;2689;50.954;7.116;2023-02-15T05:07:03;25.73;;;16.27;;
5333;SDS011;2689;50.954;7.116;2023-02-15T05:09:30;28.17;;;16.33;;
5333;SDS011;2689;50.954;7.116;2023-02-15T05:11:58;24.23;;;14.90;;
5333;SDS011;2689;50.954;7.116;2023-02-15T05:14:25;26.40;;;15.90;;
5333;SDS011;2689;50.954;7.116;2023-02-15T05:16:51;29.37;;;17.10;;
5333;SDS011;2689;50.954;7.116;2023-02-15T05:19:19;27.77;;;16.67;;
5333;SDS011;2689;50.954;7.116;2023-02-15T05:21:45;27.03;;;16.37;;
5333;SDS011;2689;50.954;7.116;2023-02-15T05:24:12;26.37;;;16.20;;
5333;SDS011;2689;50.954;7.116;2023-02-15T05:26:57;30.40;;;16.40;;
5333;SDS011;2689;50.954;7.116;2023-02-15T05:29:41;26.43;;;16.30;;
5333;SDS011;2689;50.954;7.116;2023-02-15T05:32:08;26.00;;;14.90;;
5333;SDS011;2689;50.954;7.116;2023-02-15T05:34:35;25.73;;;17.17;;
5333;SDS011;2689;50.954;7.116;2023-02-15T05:37:02;31.70;;;17.90;;
5333;SDS011;2689;50.954;7.116;2023-02-15T05:39:28;24.63;;;16.10;;
5333;SDS011;2689;50.954;7.116;2023-02-15T05:41:59;28.73;;;17.10;;
5333;SDS011;2689;50.954;7.116;2023-02-15T05:44:26;29.67;;;17.57;;
5333;SDS011;2689;50.954;7.116;2023-02-15T05:46:53;28.63;;;17.00;;
5333;SDS011;2689;50.954;7.116;2023-02-15T05:49:20;28.73;;;15.20;;
5333;SDS011;2689;50.954;7.116;2023-02-15T05:51:46;31.00;;;17.00;;
5333;SDS011;2689;50.954;7.116;2023-02-15T05:54:13;28.07;;;17.07;;
5333;SDS011;2689;50.954;7.116;2023-02-15T05:56:40;29.47;;;16.40;;
5333;SDS011;2689;50.954;7.116;2023-02-15T05:59:08;25.93;;;15.17;;
5333;SDS011;2689;50.954;7.116;2023-02-15T06:01:35;24.97;;;16.07;;
5333;SDS011;2689;50.954;7.116;2023-02-15T06:04:02;27.20;;;16.80;;
5333;SDS011;2689;50.954;7.116;2023-02-15T06:06:29;26.67;;;16.57;;
5333;SDS011;2689;50.954;7.116;2023-02-15T06:08:55;25.50;;;15.80;;
5333;SDS011;2689;50.954;7.116;2023-02-15T06:11:22;27.10;;;15.43;;
5333;SDS011;2689;50.954;7.116;2023-02-15T06:13:49;24.73;;;15.57;;
5333;SDS011;2689;50.954;7.116;2023-02-15T06:16:17;25.53;;;15.90;;
5333;SDS011;2689;50.954;7.116;2023-02-15T06:18:44;28.27;;;16.50;;
5333;SDS011;2689;50.954;7.116;2023-02-15T06:21:11;28.47;;;16.27;;
5333;SDS011;2689;50.954;7.116;2023-02-15T06:23:38;21.17;;;14.17;;
5333;SDS011;2689;50.954;7.116;2023-02-15T06:26:05;25.43;;;15.63;;
5333;SDS011;2689;50.954;7.116;2023-02-15T06:28:31;24.17;;;14.17;;
5333;SDS011;2689;50.954;7.116;2023-02-15T06:30:58;25.03;;;16.20;;
5333;SDS011;2689;50.954;7.116;2023-02-15T06:35:58;25.87;;;15.40;;
5333;SDS011;2689;50.954;7.116;2023-02-15T06:38:25;21.50;;;14.53;;
5333;SDS011;2689;50.954;7.116;2023-02-15T06:40:52;28.87;;;16.13;;
5333;SDS011;2689;50.954;7.116;2023-02-15T06:43:19;24.77;;;15.00;;
5333;SDS011;2689;50.954;7.116;2023-02-15T06:45:46;25.93;;;14.33;;
5333;SDS011;2689;50.954;7.116;2023-02-15T06:48:12;22.90;;;15.03;;
5333;SDS011;2689;50.954;7.116;2023-02-15T06:50:41;22.63;;;15.23;;
5333;SDS011;2689;50.954;7.116;2023-02-15T06:53:07;24.33;;;15.00;;
5333;SDS011;2689;50.954;7.116;2023-02-15T06:55:34;21.93;;;13.77;;
5333;SDS011;2689;50.954;7.116;2023-02-15T06:58:01;20.43;;;12.93;;
5333;SDS011;2689;50.954;7.116;2023-02-15T07:00:27;24.60;;;14.30;;
5333;SDS011;2689;50.954;7.116;2023-02-15T07:02:54;22.53;;;14.70;;
5333;SDS011;2689;50.954;7.116;2023-02-15T07:05:23;24.60;;;15.30;;
5333;SDS011;2689;50.954;7.116;2023-02-15T07:07:56;24.60;;;14.40;;
5333;SDS011;2689;50.954;7.116;2023-02-15T07:10:24;24.30;;;14.83;;
5333;SDS011;2689;50.954;7.116;2023-02-15T07:12:51;19.37;;;12.70;;
5333;SDS011;2689;50.954;7.116;2023-02-15T07:15:18;22.17;;;14.37;;
5333;SDS011;2689;50.954;7.116;2023-02-15T07:17:46;21.83;;;14.50;;
5333;SDS011;2689;50.954;7.116;2023-02-15T07:20:16;29.03;;;14.90;;
5333;SDS011;2689;50.954;7.116;2023-02-15T07:22:44;22.30;;;13.50;;
5333;SDS011;2689;50.954;7.116;2023-02-15T07:25:12;22.47;;;13.57;;
5333;SDS011;2689;50.954;7.116;2023-02-15T07:27:39;23.43;;;14.73;;
5333;SDS011;2689;50.954;7.116;2023-02-15T07:30:07;23.20;;;14.10;;
5333;SDS011;2689;50.954;7.116;2023-02-15T07:32:36;23.40;;;14.50;;
5333;SDS011;2689;50.954;7.116;2023-02-15T07:35:23;24.57;;;14.80;;
5333;SDS011;2689;50.954;7.116;2023-02-15T07:37:50;21.20;;;13.53;;
5333;SDS011;2689;50.954;7.116;2023-02-15T07:40:19;18.87;;;12.23;;
5333;SDS011;2689;50.954;7.116;2023-02-15T07:42:48;22.23;;;14.00;;
5333;SDS011;2689;50.954;7.116;2023-02-15T07:45:16;21.53;;;13.37;;
5333;SDS011;2689;50.954;7.116;2023-02-15T07:47:43;20.40;;;13.60;;
5333;SDS011;2689;50.954;7.116;2023-02-15T07:50:10;20.60;;;12.93;;
5333;SDS011;2689;50.954;7.116;2023-02-15T07:52:37;18.40;;;12.30;;
5333;SDS011;2689;50.954;7.116;2023-02-15T07:55:04;21.63;;;12.83;;
5333;SDS011;2689;50.954;7.116;2023-02-15T07:57:32;16.70;;;9.30;;
5333;SDS011;2689;50.954;7.116;2023-02-15T07:59:59;19.53;;;12.20;;
5333;SDS011;2689;50.954;7.116;2023-02-15T08:02:26;12.67;;;7.63;;
5333;SDS011;2689;50.954;7.116;2023-02-15T08:04:53;16.67;;;10.70;;
5333;SDS011;2689;50.954;7.116;2023-02-15T08:07:20;19.90;;;12.10;;
5333;SDS011;2689;50.954;7.116;2023-02-15T08:09:47;18.17;;;10.27;;
5333;SDS011;2689;50.954;7.116;2023-02-15T08:12:14;17.97;;;10.70;;
5333;SDS011;2689;50.954;7.116;2023-02-15T08:14:42;18.70;;;11.10;;
5333;SDS011;2689;50.954;7.116;2023-02-15T08:17:08;19.90;;;11.30;;
5333;SDS011;2689;50.954;7.116;2023-02-15T08:19:35;17.87;;;11.87;;
5333;SDS011;2689;50.954;7.116;2023-02-15T08:22:03;16.30;;;10.80;;
5333;SDS011;2689;50.954;7.116;2023-02-15T08:24:31;19.40;;;12.13;;
5333;SDS011;2689;50.954;7.116;2023-02-15T08:26:59;15.27;;;10.70;;
5333;SDS011;2689;50.954;7.116;2023-02-15T08:29:28;15.83;;;11.07;;
5333;SDS011;2689;50.954;7.116;2023-02-15T08:31:57;16.00;;;11.10;;
5333;SDS011;2689;50.954;7.116;2023-02-15T08:34:27;14.63;;;10.67;;
5333;SDS011;2689;50.954;7.116;2023-02-15T08:36:55;14.00;;;10.03;;
5333;SDS011;2689;50.954;7.116;2023-02-15T08:39:22;15.20;;;11.37;;
5333;SDS011;2689;50.954;7.116;2023-02-15T08:41:49;14.60;;;11.40;;
5333;SDS011;2689;50.954;7.116;2023-02-15T08:44:17;14.60;;;11.07;;
5333;SDS011;2689;50.954;7.116;2023-02-15T08:46:45;16.63;;;11.00;;
5333;SDS011;2689;50.954;7.116;2023-02-15T08:49:15;13.77;;;10.37;;
5333;SDS011;2689;50.954;7.116;2023-02-15T08:51:43;15.90;;;11.53;;
5333;SDS011;2689;50.954;7.116;2023-02-15T08:54:12;15.07;;;11.27;;
5333;SDS011;2689;50.954;7.116;2023-02-15T08:56:42;13.87;;;10.63;;
5333;SDS011;2689;50.954;7.116;2023-02-15T08:59:12;15.23;;;10.77;;
5333;SDS011;2689;50.954;7.116;2023-02-15T09:01:40;13.33;;;10.20;;
5333;SDS011;2689;50.954;7.116;2023-02-15T09:04:07;14.00;;;10.10;;
5333;SDS011;2689;50.954;7.116;2023-02-15T09:06:36;14.30;;;9.73;;
5333;SDS011;2689;50.954;7.116;2023-02-15T09:09:04;14.03;;;10.00;;
5333;SDS011;2689;50.954;7.116;2023-02-15T09:11:33;12.90;;;9.67;;
5333;SDS011;2689;50.954;7.116;2023-02-15T09:14:01;13.00;;;10.10;;
5333;SDS011;2689;50.954;7.116;2023-02-15T09:16:31;11.77;;;9.60;;
5333;SDS011;2689;50.954;7.116;2023-02-15T09:18:59;13.10;;;10.67;;
5333;SDS011;2689;50.954;7.116;2023-02-15T09:21:27;11.90;;;10.47;;
5333;SDS011;2689;50.954;7.116;2023-02-15T09:23:56;12.20;;;9.20;;
5333;SDS011;2689;50.954;7.116;2023-02-15T09:26:26;13.13;;;10.17;;
5333;SDS011;2689;50.954;7.116;2023-02-15T09:28:54;12.27;;;9.77;;
5333;SDS011;2689;50.954;7.116;2023-02-15T09:31:23;13.43;;;10.50;;
5333;SDS011;2689;50.954;7.116;2023-02-15T09:33:51;11.90;;;10.10;;
5333;SDS011;2689;50.954;7.116;2023-02-15T09:36:19;13.60;;;10.50;;
5333;SDS011;2689;50.954;7.116;2023-02-15T09:38:48;11.00;;;9.77;;
5333;SDS011;2689;50.954;7.116;2023-02-15T09:41:26;13.90;;;10.53;;
5333;SDS011;2689;50.954;7.116;2023-02-15T09:44:17;11.97;;;9.47;;
5333;SDS011;2689;50.954;7.116;2023-02-15T09:46:58;11.33;;;9.47;;
5333;SDS011;2689;50.954;7.116;2023-02-15T09:49:37;11.83;;;10.33;;
5333;SDS011;2689;50.954;7.116;2023-02-15T09:52:24;11.53;;;9.50;;
5333;SDS011;2689;50.954;7.116;2023-02-15T09:55:08;11.03;;;8.17;;
5333;SDS011;2689;50.954;7.116;2023-02-15T09:57:53;12.90;;;10.23;;
5333;SDS011;2689;50.954;7.116;2023-02-15T10:00:29;10.37;;;9.23;;
5333;SDS011;2689;50.954;7.116;2023-02-15T10:03:07;12.73;;;10.20;;
5333;SDS011;2689;50.954;7.116;2023-02-15T10:05:50;11.30;;;9.57;;
5333;SDS011;2689;50.954;7.116;2023-02-15T10:08:39;11.20;;;9.87;;
5333;SDS011;2689;50.954;7.116;2023-02-15T10:11:24;14.40;;;11.53;;
5333;SDS011;2689;50.954;7.116;2023-02-15T10:17:09;11.63;;;9.90;;
5333;SDS011;2689;50.954;7.116;2023-02-15T10:19:49;13.33;;;10.53;;
5333;SDS011;2689;50.954;7.116;2023-02-15T10:22:31;15.47;;;10.73;;
5333;SDS011;2689;50.954;7.116;2023-02-15T10:25:07;13.13;;;8.70;;
5333;SDS011;2689;50.954;7.116;2023-02-15T10:27:44;13.17;;;10.37;;
5333;SDS011;2689;50.954;7.116;2023-02-15T10:32:46;13.23;;;9.80;;
5333;SDS011;2689;50.954;7.116;2023-02-15T10:35:24;13.93;;;10.00;;
5333;SDS011;2689;50.954;7.116;2023-02-15T10:37:59;12.93;;;9.90;;
5333;SDS011;2689;50.954;7.116;2023-02-15T10:40:41;11.87;;;8.83;;
5333;SDS011;2689;50.954;7.116;2023-02-15T10:43:20;12.77;;;9.80;;
5333;SDS011;2689;50.954;7.116;2023-02-15T10:46:08;14.30;;;10.13;;
5333;SDS011;2689;50.954;7.116;2023-02-15T10:48:44;14.40;;;10.20;;
5333;SDS011;2689;50.954;7.116;2023-02-15T10:51:28;14.07;;;8.60;;
5333;SDS011;2689;50.954;7.116;2023-02-15T10:54:07;11.17;;;8.00;;
5333;SDS011;2689;50.954;7.116;2023-02-15T10:56:42;13.90;;;10.67;;
5333;SDS011;2689;50.954;7.116;2023-02-15T10:59:20;15.00;;;10.40;;
5333;SDS011;2689;50.954;7.116;2023-02-15T11:02:01;14.90;;;9.60;;
5333;SDS011;2689;50.954;7.116;2023-02-15T11:04:40;14.63;;;9.23;;
5333;SDS011;2689;50.954;7.116;2023-02-15T11:07:18;12.60;;;9.07;;
5333;SDS011;2689;50.954;7.116;2023-02-15T11:09:51;14.70;;;10.67;;
5333;SDS011;2689;50.954;7.116;2023-02-15T11:12:27;12.63;;;9.40;;
5333;SDS011;2689;50.954;7.116;2023-02-15T11:14:56;12.50;;;9.77;;
5333;SDS011;2689;50.954;7.116;2023-02-15T11:17:29;13.70;;;8.73;;
5333;SDS011;2689;50.954;7.116;2023-02-15T11:20:07;16.30;;;9.80;;
5333;SDS011;2689;50.954;7.116;2023-02-15T11:22:44;13.50;;;10.47;;
5333;SDS011;2689;50.954;7.116;2023-02-15T11:25:16;16.03;;;10.13;;
5333;SDS011;2689;50.954;7.116;2023-02-15T11:27:45;13.60;;;11.00;;
5333;SDS011;2689;50.954;7.116;2023-02-15T11:30:15;13.27;;;10.37;;
5333;SDS011;2689;50.954;7.116;2023-02-15T11:32:47;11.50;;;9.23;;
5333;SDS011;2689;50.954;7.116;2023-02-15T11:35:20;15.60;;;10.70;;
5333;SDS011;2689;50.954;7.116;2023-02-15T11:37:53;13.57;;;9.70;;
5333;SDS011;2689;50.954;7.116;2023-02-15T11:40:26;12.07;;;9.87;;
5333;SDS011;2689;50.954;7.116;2023-02-15T11:42:56;15.53;;;10.77;;
5333;SDS011;2689;50.954;7.116;2023-02-15T11:45:26;11.33;;;9.63;;
5333;SDS011;2689;50.954;7.116;2023-02-15T11:47:56;14.53;;;9.57;;
5333;SDS011;2689;50.954;7.116;2023-02-15T11:50:28;13.00;;;10.20;;
5333;SDS011;2689;50.954;7.116;2023-02-15T11:52:59;16.80;;;10.03;;
5333;SDS011;2689;50.954;7.116;2023-02-15T11:55:28;14.60;;;9.70;;
5333;SDS011;2689;50.954;7.116;2023-02-15T11:57:57;13.60;;;10.57;;
5333;SDS011;2689;50.954;7.116;2023-02-15T12:00:31;14.23;;;10.97;;
5333;SDS011;2689;50.954;7.116;2023-02-15T12:03:06;14.90;;;9.90;;
5333;SDS011;2689;50.954;7.116;2023-02-15T12:05:44;13.43;;;10.70;;
5333;SDS011;2689;50.954;7.116;2023-02-15T12:08:17;15.30;;;11.27;;
5333;SDS011;2689;50.954;7.116;2023-02-15T12:13:53;12.70;;;10.80;;
5333;SDS011;2689;50.954;7.116;2023-02-15T12:16:25;12.20;;;8.70;;
5333;SDS011;2689;50.954;7.116;2023-02-15T12:19:02;14.97;;;10.70;;
5333;SDS011;2689;50.954;7.116;2023-02-15T12:21:38;12.40;;;9.70;;
5333;SDS011;2689;50.954;7.116;2023-02-15T12:24:16;13.70;;;10.90;;
5333;SDS011;2689;50.954;7.116;2023-02-15T12:26:45;12.60;;;10.07;;
5333;SDS011;2689;50.954;7.116;2023-02-15T12:29:23;14.97;;;10.90;;
5333;SDS011;2689;50.954;7.116;2023-02-15T12:31:53;12.23;;;10.13;;
5333;SDS011;2689;50.954;7.116;2023-02-15T12:34:23;13.67;;;10.13;;
5333;SDS011;2689;50.954;7.116;2023-02-15T12:36:53;12.60;;;9.40;;
5333;SDS011;2689;50.954;7.116;2023-02-15T12:39:25;18.37;;;11.77;;
5333;SDS011;2689;50.954;7.116;2023-02-15T12:41:57;21.97;;;12.77;;
5333;SDS011;2689;50.954;7.116;2023-02-15T12:44:27;15.53;;;11.23;;
5333;SDS011;2689;50.954;7.116;2023-02-15T12:46:56;13.50;;;10.27;;
5333;SDS011;2689;50.954;7.116;2023-02-15T12:49:26;13.93;;;10.70;;
5333;SDS011;2689;50.954;7.116;2023-02-15T12:51:54;11.30;;;9.17;;
5333;SDS011;2689;50.954;7.116;2023-02-15T12:54:27;16.50;;;12.10;;
5333;SDS011;2689;50.954;7.116;2023-02-15T12:56:56;14.77;;;11.47;;
5333;SDS011;2689;50.954;7.116;2023-02-15T12:59:24;13.23;;;9.70;;
5333;SDS011;2689;50.954;7.116;2023-02-15T13:01:51;12.23;;;9.20;;
5333;SDS011;2689;50.954;7.116;2023-02-15T13:04:21;17.57;;;11.17;;
5333;SDS011;2689;50.954;7.116;2023-02-15T13:06:52;14.23;;;10.33;;
5333;SDS011;2689;50.954;7.116;2023-02-15T13:09:25;16.83;;;11.07;;
5333;SDS011;2689;50.954;7.116;2023-02-15T13:12:09;11.93;;;9.03;;
5333;SDS011;2689;50.954;7.116;2023-02-15T13:14:43;12.97;;;10.23;;
5333;SDS011;2689;50.954;7.116;2023-02-15T13:17:12;14.30;;;10.73;;
5333;SDS011;2689;50.954;7.116;2023-02-15T13:19:43;17.60;;;10.53;;
5333;SDS011;2689;50.954;7.116;2023-02-15T13:22:14;13.57;;;9.80;;
5333;SDS011;2689;50.954;7.116;2023-02-15T13:24:44;15.57;;;11.00;;
5333;SDS011;2689;50.954;7.116;2023-02-15T13:27:14;14.70;;;9.73;;
5333;SDS011;2689;50.954;7.116;2023-02-15T13:29:45;13.53;;;10.27;;
5333;SDS011;2689;50.954;7.116;2023-02-15T13:32:19;13.70;;;9.87;;
5333;SDS011;2689;50.954;7.116;2023-02-15T13:34:51;13.97;;;9.87;;
5333;SDS011;2689;50.954;7.116;2023-02-15T13:37:33;15.00;;;10.53;;
5333;SDS011;2689;50.954;7.116;2023-02-15T13:40:11;14.93;;;10.97;;
5333;SDS011;2689;50.954;7.116;2023-02-15T13:42:41;15.30;;;10.87;;
5333;SDS011;2689;50.954;7.116;2023-02-15T13:45:19;12.77;;;9.93;;
5333;SDS011;2689;50.954;7.116;2023-02-15T13:47:59;22.63;;;11.03;;
5333;SDS011;2689;50.954;7.116;2023-02-15T13:50:38;14.30;;;10.43;;
5333;SDS011;2689;50.954;7.116;2023-02-15T13:53:21;15.73;;;10.87;;
5333;SDS011;2689;50.954;7.116;2023-02-15T13:56:00;15.90;;;11.50;;
5333;SDS011;2689;50.954;7.116;2023-02-15T13:58:50;16.37;;;11.50;;
5333;SDS011;2689;50.954;7.116;2023-02-15T14:01:42;16.73;;;10.80;;
5333;SDS011;2689;50.954;7.116;2023-02-15T14:04:22;16.00;;;10.30;;
5333;SDS011;2689;50.954;7.116;2023-02-15T14:07:33;14.33;;;10.37;;
5333;SDS011;2689;50.954;7.116;2023-02-15T14:10:21;16.13;;;10.20;;
5333;SDS011;2689;50.954;7.116;2023-02-15T14:12:59;13.40;;;9.90;;
5333;SDS011;2689;50.954;7.116;2023-02-15T14:15:47;14.63;;;10.60;;
5333;SDS011;2689;50.954;7.116;2023-02-15T14:18:20;13.07;;;8.90;;
5333;SDS011;2689;50.954;7.116;2023-02-15T14:20:56;13.17;;;10.53;;
5333;SDS011;2689;50.954;7.116;2023-02-15T14:23:33;13.80;;;10.30;;
5333;SDS011;2689;50.954;7.116;2023-02-15T14:26:09;13.53;;;10.40;;
5333;SDS011;2689;50.954;7.116;2023-02-15T14:28:43;15.27;;;11.27;;
5333;SDS011;2689;50.954;7.116;2023-02-15T14:31:17;14.67;;;11.17;;
5333;SDS011;2689;50.954;7.116;2023-02-15T14:33:52;16.23;;;11.50;;
5333;SDS011;2689;50.954;7.116;2023-02-15T14:36:21;11.33;;;9.97;;
5333;SDS011;2689;50.954;7.116;2023-02-15T14:39:01;14.97;;;10.00;;
5333;SDS011;2689;50.954;7.116;2023-02-15T14:42:02;15.00;;;10.70;;
5333;SDS011;2689;50.954;7.116;2023-02-15T14:44:35;15.97;;;10.00;;
5333;SDS011;2689;50.954;7.116;2023-02-15T14:47:05;16.27;;;11.43;;
5333;SDS011;2689;50.954;7.116;2023-02-15T14:49:37;16.07;;;11.60;;
5333;SDS011;2689;50.954;7.116;2023-02-15T14:52:05;13.80;;;10.57;;
5333;SDS011;2689;50.954;7.116;2023-02-15T14:57:26;13.10;;;10.40;;
5333;SDS011;2689;50.954;7.116;2023-02-15T14:59:57;12.80;;;9.80;;
5333;SDS011;2689;50.954;7.116;2023-02-15T15:02:29;14.67;;;11.47;;
5333;SDS011;2689;50.954;7.116;2023-02-15T15:05:09;14.83;;;10.93;;
5333;SDS011;2689;50.954;7.116;2023-02-15T15:07:43;16.33;;;11.50;;
5333;SDS011;2689;50.954;7.116;2023-02-15T15:16:28;15.30;;;10.10;;
5333;SDS011;2689;50.954;7.116;2023-02-15T15:18:57;13.90;;;10.03;;
5333;SDS011;2689;50.954;7.116;2023-02-15T15:27:36;15.30;;;10.80;;
5333;SDS011;2689;50.954;7.116;2023-02-15T15:36:28;14.73;;;10.30;;
5333;SDS011;2689;50.954;7.116;2023-02-15T15:39:39;17.93;;;10.17;;
5333;SDS011;2689;50.954;7.116;2023-02-15T15:42:36;13.67;;;10.10;;
5333;SDS011;2689;50.954;7.116;2023-02-15T15:45:19;18.20;;;10.80;;
5333;SDS011;2689;50.954;7.116;2023-02-15T15:48:24;15.93;;;11.00;;
5333;SDS011;2689;50.954;7.116;2023-02-15T15:50:59;17.03;;;10.90;;
5333;SDS011;2689;50.954;7.116;2023-02-15T15:53:31;15.47;;;10.53;;
5333;SDS011;2689;50.954;7.116;2023-02-15T15:56:04;19.67;;;13.57;;
5333;SDS011;2689;50.954;7.116;2023-02-15T15:58:35;14.37;;;10.43;;